This is the latest recevied weather packets stored in our database for station/object KE8RXN. If no packets are shown the sender has not sent any weather packets the latest 10 day(s).
| Time | Temp. | Humidity | Pressure | Rain* | Wind** | Luminosity | Snow |
|---|---|---|---|---|---|---|---|
| 1777146879 | 20.56° C | 56% | 1017.3 hPa | 0 mm | - | 596 W/m² | - |
| 1777146576 | 20° C | 56% | 1017.4 hPa | 0 mm | - | 613 W/m² | - |
| 1777146271 | 20.56° C | 56% | 1017.6 hPa | 0 mm | - | 605 W/m² | - |
| 1777145968 | 20° C | 56% | 1017.3 hPa | 0 mm | - | 617 W/m² | - |
| 1777145664 | 20° C | 56% | 1017.4 hPa | 0 mm | - | 641 W/m² | - |
| 1777145360 | 19.44° C | 58% | 1017.5 hPa | 0 mm | - | 648 W/m² | - |
| 1777145055 | 19.44° C | 56% | 1017.5 hPa | 0 mm | - | 644 W/m² | - |
| 1777144749 | 18.89° C | 57% | 1017.6 hPa | 0 mm | - | 655 W/m² | - |
| 1777144443 | 19.44° C | 57% | 1017.5 hPa | 0 mm | - | 677 W/m² | - |
| 1777144140 | 20° C | 56% | 1017.3 hPa | 0 mm | - | 680 W/m² | - |
| 1777143835 | 19.44° C | 58% | 1017.4 hPa | 0 mm | - | 698 W/m² | - |
| 1777143533 | 19.44° C | 58% | 1017.3 hPa | 0 mm | - | 692 W/m² | - |
| 1777143228 | 19.44° C | 58% | 1017.5 hPa | 0 mm | - | 713 W/m² | - |
| 1777142924 | 19.44° C | 55% | 1017.5 hPa | 0 mm | - | 694 W/m² | - |
| 1777142620 | 19.44° C | 56% | 1017.5 hPa | 0 mm | - | 468 W/m² | - |
| 1777142318 | 20° C | 56% | 1017.4 hPa | 0 mm | - | 702 W/m² | - |
| 1777142017 | 20° C | 57% | 1017.5 hPa | 0 mm | - | 695 W/m² | - |
| 1777141714 | 18.89° C | 58% | 1017.3 hPa | 0 mm | - | 685 W/m² | - |
| 1777141412 | 18.89° C | 58% | 1017.5 hPa | 0 mm | - | 668 W/m² | - |
| 1777141108 | 18.89° C | 58% | 1017.7 hPa | 0 mm | - | 659 W/m² | - |
| 1777140806 | 18.33° C | 59% | 1017.7 hPa | 0 mm | - | 681 W/m² | - |
| 1777140502 | 17.78° C | 59% | 1017.5 hPa | 0 mm | - | 699 W/m² | - |
| 1777140200 | 18.89° C | 57% | 1017.4 hPa | 0 mm | - | 714 W/m² | - |
| 1777139897 | 17.78° C | 60% | 1017.6 hPa | 0 mm | - | 711 W/m² | - |
| 1777139595 | 18.89° C | 58% | 1017.6 hPa | 0 mm | - | 478 W/m² | - |
* Rain latest hour (hover to see other rain measurements)
** Current wind speed in m/s (hover to see current wind gust speed)